Terminal Aerodrome Forecast
Issued by NWS Wilmington, OH

Current Version | Previous Version | Graphics & Text | Print | Product List | Glossary On
Versions: 1 2 3 4 5 6 7 8 9 10 11 12 13 14 15 16 17 18 19 20 21 22 23 24 25 26 27 28 29
000
FTUS41 KILN 281400 AAA
TAFCVG
TAF AMD
KCVG 281456Z 2815/2918 32011KT P6SM SCT025 OVC035
     FM281800 32012KT P6SM VCSH BKN035
     FM290000 33007KT P6SM SCT040
     FM291300 28008KT P6SM SCT050=

USA.gov is the U.S. government's official web portal to all federal, state and local government web resources and services.